createdAt,value
2023-12-24T00:02:48.329Z,4.70
2023-12-24T00:05:15.099Z,3.20
2023-12-24T00:07:41.777Z,4.10
2023-12-24T00:10:10.157Z,3.70
2023-12-24T00:12:39.236Z,4.10
2023-12-24T00:15:07.125Z,4.20
2023-12-24T00:17:33.924Z,3.40
2023-12-24T00:20:00.914Z,3.70
2023-12-24T00:22:29.724Z,4.00
2023-12-24T00:24:56.480Z,3.60
2023-12-24T00:27:23.032Z,3.00
2023-12-24T00:29:49.575Z,3.60
2023-12-24T00:32:17.173Z,3.40
2023-12-24T00:34:43.795Z,3.30
2023-12-24T00:37:10.306Z,3.60
2023-12-24T00:39:36.870Z,3.20
2023-12-24T00:42:03.523Z,3.00
2023-12-24T00:44:30.436Z,2.70
2023-12-24T00:46:57.309Z,3.10
2023-12-24T00:49:25.821Z,2.80
2023-12-24T12:02:57.696Z,4.20
2023-12-24T12:05:25.966Z,4.50
2023-12-24T12:07:53.485Z,4.20
2023-12-24T12:10:20.554Z,4.70
2023-12-24T12:12:47.351Z,4.80
2023-12-24T12:15:15.646Z,4.80
2023-12-24T12:17:42.305Z,4.70
2023-12-24T12:20:09.517Z,4.70
2023-12-24T12:22:36.163Z,4.30
2023-12-24T12:25:03.951Z,4.90
2023-12-24T12:27:30.634Z,4.80
2023-12-24T12:29:57.319Z,4.70
2023-12-24T12:32:23.995Z,3.90
2023-12-24T12:34:50.716Z,4.00
2023-12-24T12:37:17.398Z,4.00
2023-12-24T12:39:44.029Z,3.40
2023-12-24T12:42:12.016Z,3.50
2023-12-24T12:44:38.592Z,4.20
2023-12-24T12:47:05.257Z,4.40
2023-12-24T12:49:32.478Z,4.10
2023-12-24T12:51:59.156Z,3.40
2023-12-24T12:54:25.773Z,4.40
2023-12-24T12:56:53.985Z,4.00
2023-12-24T12:59:28.618Z,4.40
2023-12-24T13:08:33.557Z,3.60
2023-12-24T13:11:06.401Z,3.30
2023-12-24T13:13:33.722Z,3.30
2023-12-24T13:16:08.281Z,3.10
2023-12-24T13:18:35.021Z,3.10
2023-12-24T13:21:04.075Z,3.40
2023-12-24T13:23:30.925Z,3.00
2023-12-24T13:25:57.390Z,3.00
2023-12-24T13:28:27.195Z,3.40
2023-12-24T13:30:53.965Z,3.80
2023-12-24T13:33:20.244Z,3.30
2023-12-24T13:35:47.568Z,3.70
2023-12-24T13:38:17.010Z,3.70
2023-12-24T13:40:43.882Z,4.10
2023-12-24T13:43:11.068Z,4.20
2023-12-24T13:45:38.619Z,3.80
2023-12-24T13:48:05.232Z,4.30
2023-12-24T13:50:32.675Z,5.40
2023-12-24T13:53:03.258Z,4.40
2023-12-24T13:55:35.160Z,5.00
2023-12-24T13:58:01.099Z,5.10
2023-12-24T14:00:27.065Z,5.20
2023-12-24T14:02:56.918Z,4.80
2023-12-24T14:05:24.233Z,5.60
2023-12-24T14:07:50.225Z,4.90
2023-12-24T14:10:16.200Z,4.90
2023-12-24T14:12:42.721Z,5.40
2023-12-24T14:15:09.837Z,5.10
2023-12-24T14:17:37.196Z,6.80
2023-12-24T14:20:08.653Z,5.80
2023-12-24T14:22:34.613Z,5.20
2023-12-24T14:25:00.710Z,5.10
2023-12-24T14:27:26.933Z,5.70
2023-12-24T14:29:54.266Z,5.70
2023-12-24T14:32:20.273Z,5.70
2023-12-24T14:34:46.226Z,5.00
2023-12-24T14:37:12.111Z,5.20
2023-12-24T14:39:38.016Z,5.00
2023-12-24T14:42:03.997Z,5.90
2023-12-24T14:44:29.879Z,4.90
2023-12-24T14:46:56.227Z,5.10
2023-12-24T14:49:22.098Z,5.00
2023-12-24T14:51:48.094Z,5.50
2023-12-24T14:54:13.936Z,5.00
2023-12-24T14:56:40.772Z,4.90
2023-12-24T14:59:11.364Z,4.90
2023-12-24T15:01:37.398Z,4.70
2023-12-24T15:04:03.812Z,5.80
2023-12-24T15:06:29.678Z,5.50
2023-12-24T15:08:55.560Z,4.80
2023-12-24T15:11:21.430Z,4.90
2023-12-24T15:13:47.385Z,5.60
2023-12-24T15:16:13.322Z,4.30
2023-12-24T15:18:39.294Z,4.30
2023-12-24T15:21:05.290Z,4.00
2023-12-24T15:23:32.459Z,3.80
2023-12-24T15:25:58.290Z,5.30
2023-12-24T15:28:24.194Z,6.00
2023-12-24T15:30:50.919Z,5.20
2023-12-24T15:33:16.993Z,6.40
2023-12-24T15:35:42.995Z,6.20
2023-12-24T15:38:09.049Z,8.00
2023-12-24T15:40:34.932Z,8.80
2023-12-24T15:43:01.005Z,7.00
2023-12-24T15:45:27.190Z,7.30
2023-12-24T15:47:53.274Z,5.80
2023-12-24T15:50:19.362Z,5.90
2023-12-24T15:52:45.206Z,6.20
2023-12-24T15:55:11.145Z,6.60
2023-12-24T15:57:37.369Z,7.40
2023-12-24T16:00:06.237Z,8.10
2023-12-24T16:02:32.336Z,8.80
2023-12-24T16:04:58.378Z,9.00
2023-12-24T16:07:24.270Z,9.70
2023-12-24T16:09:50.197Z,9.80
2023-12-24T16:12:17.903Z,9.70
2023-12-24T16:14:43.877Z,8.70
2023-12-24T16:17:09.877Z,7.50
2023-12-24T16:19:35.772Z,9.10
2023-12-24T16:22:01.611Z,8.80
2023-12-24T16:24:28.383Z,7.80
2023-12-24T16:27:37.346Z,7.70
2023-12-24T16:30:08.393Z,7.40
2023-12-24T16:32:35.337Z,7.70
2023-12-24T16:35:02.467Z,7.50
2023-12-24T16:37:28.270Z,7.70
2023-12-24T16:39:54.088Z,8.50
2023-12-24T16:42:19.936Z,8.40
2023-12-24T16:44:45.918Z,6.80
2023-12-24T16:47:11.903Z,7.30
2023-12-24T16:49:37.777Z,6.20
2023-12-24T16:52:03.920Z,7.30
2023-12-24T16:54:29.789Z,8.10
2023-12-24T16:56:55.949Z,7.60
2023-12-24T16:59:22.262Z,7.30
2023-12-24T17:01:48.172Z,7.40
2023-12-24T17:04:15.408Z,7.20
2023-12-24T17:06:41.738Z,6.90
2023-12-24T17:09:10.157Z,7.30
2023-12-24T17:11:36.637Z,6.70
2023-12-24T17:14:02.521Z,7.40
2023-12-24T17:16:28.392Z,6.60
2023-12-24T17:18:54.386Z,6.90
2023-12-24T17:21:20.286Z,6.70
2023-12-24T17:30:38.054Z,6.10
2023-12-24T17:33:06.030Z,6.20
2023-12-24T17:35:33.481Z,6.00
2023-12-24T17:38:00.156Z,6.60
2023-12-24T17:40:28.332Z,6.70
2023-12-24T17:42:55.748Z,6.80
2023-12-24T17:45:22.375Z,6.60
2023-12-24T17:47:50.007Z,6.20
2023-12-24T17:50:16.726Z,6.10
2023-12-24T17:52:43.262Z,6.00
2023-12-24T17:55:09.798Z,5.90
2023-12-24T17:57:36.314Z,6.30
2023-12-24T18:00:05.664Z,7.20
2023-12-24T18:02:33.891Z,8.50
2023-12-24T18:05:00.664Z,10.30
2023-12-24T18:07:27.759Z,8.40
2023-12-24T18:09:54.296Z,7.60
2023-12-24T18:12:20.924Z,7.00
2023-12-24T18:14:47.597Z,5.80
2023-12-24T18:17:14.265Z,7.70
2023-12-24T18:19:40.745Z,6.60
2023-12-24T18:22:07.254Z,6.90
2023-12-24T18:24:33.811Z,6.30
2023-12-24T18:27:00.332Z,6.40
2023-12-24T18:29:27.053Z,7.10
2023-12-24T18:31:53.563Z,5.80
2023-12-24T18:34:20.245Z,7.60
2023-12-24T18:36:46.815Z,7.00
2023-12-24T18:39:13.717Z,6.00
2023-12-24T18:41:40.311Z,6.80
2023-12-24T18:44:06.961Z,5.30
2023-12-24T18:46:33.456Z,5.40
2023-12-24T18:49:00.080Z,5.10
2023-12-24T18:51:26.649Z,6.30
2023-12-24T18:53:53.305Z,5.90
2023-12-24T18:56:24.102Z,6.30
2023-12-24T18:58:51.583Z,6.20
2023-12-24T19:01:18.450Z,6.20
2023-12-24T19:03:45.456Z,6.10
2023-12-24T19:06:25.585Z,5.70
2023-12-24T19:08:59.651Z,6.30
2023-12-24T19:11:27.956Z,5.80
2023-12-24T19:13:54.956Z,6.00
2023-12-24T19:16:21.575Z,5.60
2023-12-24T19:18:48.388Z,6.30
2023-12-24T19:21:15.498Z,5.90
2023-12-24T19:23:42.556Z,6.20
2023-12-24T19:26:09.276Z,6.40
2023-12-24T19:28:36.685Z,6.40
2023-12-24T19:31:03.427Z,5.90
2023-12-24T19:33:30.399Z,6.20
2023-12-24T19:35:57.177Z,5.80
2023-12-24T19:38:23.863Z,6.60
2023-12-24T19:40:50.658Z,6.20
2023-12-24T19:43:17.352Z,6.20
2023-12-24T19:45:43.899Z,6.00
2023-12-24T19:48:11.175Z,6.00
2023-12-24T19:50:38.234Z,5.40
2023-12-24T19:53:05.122Z,6.00
2023-12-24T19:55:31.646Z,5.70
2023-12-24T19:57:59.972Z,5.50
2023-12-24T20:00:26.670Z,7.30
2023-12-24T20:02:54.092Z,6.10
2023-12-24T20:05:20.972Z,5.00
2023-12-24T20:07:47.651Z,5.80
2023-12-24T20:10:14.334Z,6.60
2023-12-24T20:12:41.053Z,6.30
2023-12-24T20:15:07.993Z,5.90
2023-12-24T20:17:34.844Z,6.80
2023-12-24T20:20:01.634Z,6.40
2023-12-24T20:22:28.138Z,6.70
2023-12-24T20:24:54.737Z,7.30
2023-12-24T20:27:22.885Z,7.40
2023-12-24T20:29:50.298Z,7.80
2023-12-24T20:32:17.239Z,7.40
2023-12-24T20:34:44.069Z,8.10
2023-12-24T20:37:10.712Z,8.00
2023-12-24T20:39:37.332Z,8.30
2023-12-24T20:42:04.262Z,9.20
2023-12-24T20:44:30.911Z,8.40
2023-12-24T20:46:57.841Z,8.90
2023-12-24T20:49:24.508Z,9.20
2023-12-24T20:51:51.046Z,8.60
2023-12-24T20:54:17.611Z,9.60
2023-12-24T20:56:47.753Z,9.50
2023-12-24T20:59:18.835Z,9.10
2023-12-24T21:01:45.440Z,8.90
2023-12-24T21:04:12.155Z,9.30
2023-12-24T21:06:45.871Z,8.70
2023-12-24T21:09:16.253Z,9.20
2023-12-24T21:11:43.559Z,9.80
2023-12-24T21:14:10.415Z,8.90
2023-12-24T21:16:37.601Z,8.60
2023-12-24T21:19:04.547Z,8.30
2023-12-24T21:21:32.907Z,8.90
2023-12-24T21:23:59.777Z,9.50
2023-12-24T21:26:26.367Z,8.90
2023-12-24T21:28:53.052Z,9.20
2023-12-24T21:31:19.623Z,9.70
2023-12-24T21:33:47.752Z,9.50
2023-12-24T21:36:16.258Z,10.90
2023-12-24T21:38:45.991Z,9.30
2023-12-24T21:41:13.726Z,9.70
2023-12-24T21:43:40.566Z,9.50
2023-12-24T21:46:07.227Z,9.00
2023-12-24T21:48:34.290Z,9.50
2023-12-24T21:51:01.712Z,8.80
2023-12-24T21:53:28.638Z,9.20
2023-12-24T21:55:56.837Z,10.60
2023-12-24T21:58:23.355Z,9.00
2023-12-24T22:00:52.315Z,9.80
2023-12-24T22:03:24.666Z,8.70
2023-12-24T22:05:56.623Z,9.70
2023-12-24T22:08:23.234Z,10.00
2023-12-24T22:10:49.803Z,9.70
2023-12-24T22:13:16.441Z,9.40
2023-12-24T22:15:42.985Z,9.20
2023-12-24T22:18:09.703Z,9.00
2023-12-24T22:20:37.161Z,9.60
2023-12-24T22:23:03.921Z,9.30
2023-12-24T22:25:30.427Z,9.10
2023-12-24T22:27:58.799Z,9.20
2023-12-24T22:30:27.154Z,9.00
2023-12-24T22:32:53.797Z,8.80
2023-12-24T22:35:20.613Z,8.40
2023-12-24T22:37:47.351Z,8.40
2023-12-24T22:40:13.925Z,8.40
2023-12-24T22:42:40.450Z,9.20
2023-12-24T22:45:07.302Z,8.70
2023-12-24T22:47:33.982Z,7.50
2023-12-24T22:50:00.614Z,7.10
2023-12-24T22:52:27.171Z,8.00
2023-12-24T22:54:54.304Z,6.30
2023-12-24T22:57:20.848Z,6.50
2023-12-24T22:59:47.405Z,6.20
2023-12-24T23:02:13.977Z,6.30
2023-12-24T23:04:44.944Z,6.10
2023-12-24T23:07:13.796Z,6.50
2023-12-24T23:09:42.052Z,5.80
2023-12-24T23:12:08.916Z,5.70
2023-12-24T23:14:35.943Z,5.60
2023-12-24T23:17:02.554Z,6.10
2023-12-24T23:19:33.833Z,5.70
2023-12-24T23:22:01.238Z,5.10
2023-12-24T23:24:28.469Z,5.40
2023-12-24T23:26:55.378Z,5.60
2023-12-24T23:29:22.250Z,5.20
2023-12-24T23:31:48.866Z,5.10
2023-12-24T23:34:15.800Z,5.30
2023-12-24T23:36:42.743Z,4.80
2023-12-24T23:39:09.288Z,4.80
2023-12-24T23:41:35.956Z,5.00
2023-12-24T23:44:02.479Z,4.60
2023-12-24T23:46:29.025Z,4.70
2023-12-24T23:48:55.808Z,4.50
2023-12-24T23:51:22.504Z,4.40
2023-12-24T23:53:51.831Z,3.80
2023-12-24T23:56:19.295Z,4.30
2023-12-24T23:58:45.934Z,3.40
